sensor_id;sensor_type;location;lat;lon;timestamp;P1;durP1;ratioP1;P2;durP2;ratioP2
58472;SDS011;44775;51.564;5.460;2023-12-29T00:01:12;9.98;;;1.98;;
58472;SDS011;44775;51.564;5.460;2023-12-29T00:03:38;10.75;;;2.65;;
58472;SDS011;44775;51.564;5.460;2023-12-29T00:06:03;14.20;;;2.78;;
58472;SDS011;44775;51.564;5.460;2023-12-29T00:08:28;8.13;;;2.10;;
58472;SDS011;44775;51.564;5.460;2023-12-29T00:10:54;11.63;;;2.72;;
58472;SDS011;44775;51.564;5.460;2023-12-29T00:13:20;9.55;;;2.38;;
58472;SDS011;44775;51.564;5.460;2023-12-29T00:15:51;11.85;;;2.30;;
58472;SDS011;44775;51.564;5.460;2023-12-29T00:18:17;10.95;;;2.40;;
58472;SDS011;44775;51.564;5.460;2023-12-29T00:20:42;8.35;;;2.35;;
58472;SDS011;44775;51.564;5.460;2023-12-29T00:23:08;12.55;;;2.60;;
58472;SDS011;44775;51.564;5.460;2023-12-29T00:25:37;11.05;;;2.40;;
58472;SDS011;44775;51.564;5.460;2023-12-29T00:30:29;7.53;;;1.98;;
58472;SDS011;44775;51.564;5.460;2023-12-29T00:32:57;11.07;;;2.55;;
58472;SDS011;44775;51.564;5.460;2023-12-29T00:35:22;11.15;;;2.53;;
58472;SDS011;44775;51.564;5.460;2023-12-29T00:37:47;9.05;;;2.40;;
58472;SDS011;44775;51.564;5.460;2023-12-29T00:40:14;10.20;;;2.58;;
58472;SDS011;44775;51.564;5.460;2023-12-29T00:42:40;12.18;;;2.78;;
58472;SDS011;44775;51.564;5.460;2023-12-29T00:45:05;11.88;;;2.60;;
58472;SDS011;44775;51.564;5.460;2023-12-29T00:47:31;9.98;;;2.42;;
58472;SDS011;44775;51.564;5.460;2023-12-29T00:49:56;10.30;;;2.58;;
58472;SDS011;44775;51.564;5.460;2023-12-29T00:52:22;7.65;;;2.20;;
58472;SDS011;44775;51.564;5.460;2023-12-29T00:54:47;7.75;;;2.42;;
58472;SDS011;44775;51.564;5.460;2023-12-29T00:57:12;10.32;;;2.80;;
58472;SDS011;44775;51.564;5.460;2023-12-29T00:59:38;12.77;;;2.53;;
58472;SDS011;44775;51.564;5.460;2023-12-29T01:02:05;10.93;;;2.65;;
58472;SDS011;44775;51.564;5.460;2023-12-29T01:04:31;8.68;;;2.00;;
58472;SDS011;44775;51.564;5.460;2023-12-29T01:06:56;8.45;;;2.65;;
58472;SDS011;44775;51.564;5.460;2023-12-29T01:09:21;10.88;;;2.83;;
58472;SDS011;44775;51.564;5.460;2023-12-29T01:11:47;13.85;;;2.70;;
58472;SDS011;44775;51.564;5.460;2023-12-29T01:14:13;9.57;;;2.47;;
58472;SDS011;44775;51.564;5.460;2023-12-29T01:16:39;14.25;;;2.83;;
58472;SDS011;44775;51.564;5.460;2023-12-29T01:19:06;13.80;;;2.95;;
58472;SDS011;44775;51.564;5.460;2023-12-29T01:21:31;14.75;;;2.70;;
58472;SDS011;44775;51.564;5.460;2023-12-29T01:23:59;12.85;;;2.53;;
58472;SDS011;44775;51.564;5.460;2023-12-29T01:26:25;15.82;;;2.72;;
58472;SDS011;44775;51.564;5.460;2023-12-29T01:28:51;16.50;;;3.25;;
58472;SDS011;44775;51.564;5.460;2023-12-29T01:31:17;12.65;;;2.97;;
58472;SDS011;44775;51.564;5.460;2023-12-29T01:33:42;10.85;;;2.58;;
58472;SDS011;44775;51.564;5.460;2023-12-29T01:36:08;12.80;;;2.78;;
58472;SDS011;44775;51.564;5.460;2023-12-29T01:38:33;11.95;;;2.80;;
58472;SDS011;44775;51.564;5.460;2023-12-29T01:40:58;12.90;;;2.90;;
58472;SDS011;44775;51.564;5.460;2023-12-29T01:43:24;11.85;;;2.70;;
58472;SDS011;44775;51.564;5.460;2023-12-29T01:45:49;11.55;;;2.90;;
58472;SDS011;44775;51.564;5.460;2023-12-29T01:48:14;13.00;;;2.70;;
58472;SDS011;44775;51.564;5.460;2023-12-29T01:50:40;9.38;;;2.78;;
58472;SDS011;44775;51.564;5.460;2023-12-29T01:53:05;13.85;;;3.03;;
58472;SDS011;44775;51.564;5.460;2023-12-29T01:55:31;11.63;;;2.88;;
58472;SDS011;44775;51.564;5.460;2023-12-29T01:57:57;13.38;;;3.38;;
58472;SDS011;44775;51.564;5.460;2023-12-29T02:00:23;13.32;;;3.38;;
58472;SDS011;44775;51.564;5.460;2023-12-29T02:02:49;15.13;;;3.20;;
58472;SDS011;44775;51.564;5.460;2023-12-29T02:05:15;12.98;;;3.00;;
58472;SDS011;44775;51.564;5.460;2023-12-29T02:07:41;15.25;;;3.10;;
58472;SDS011;44775;51.564;5.460;2023-12-29T02:10:07;16.85;;;2.83;;
58472;SDS011;44775;51.564;5.460;2023-12-29T02:12:34;15.68;;;2.78;;
58472;SDS011;44775;51.564;5.460;2023-12-29T02:15:01;11.32;;;2.60;;
58472;SDS011;44775;51.564;5.460;2023-12-29T02:17:31;11.88;;;3.03;;
58472;SDS011;44775;51.564;5.460;2023-12-29T02:20:05;14.45;;;2.80;;
58472;SDS011;44775;51.564;5.460;2023-12-29T02:22:32;11.95;;;2.80;;
58472;SDS011;44775;51.564;5.460;2023-12-29T02:24:57;9.68;;;2.50;;
58472;SDS011;44775;51.564;5.460;2023-12-29T02:27:24;14.93;;;3.08;;
58472;SDS011;44775;51.564;5.460;2023-12-29T02:32:46;12.88;;;2.88;;
58472;SDS011;44775;51.564;5.460;2023-12-29T02:35:15;14.73;;;3.03;;
58472;SDS011;44775;51.564;5.460;2023-12-29T02:37:43;12.48;;;2.65;;
58472;SDS011;44775;51.564;5.460;2023-12-29T02:40:09;11.57;;;2.78;;
58472;SDS011;44775;51.564;5.460;2023-12-29T02:42:35;6.80;;;1.92;;
58472;SDS011;44775;51.564;5.460;2023-12-29T02:45:01;11.82;;;2.30;;
58472;SDS011;44775;51.564;5.460;2023-12-29T02:47:26;7.68;;;2.40;;
58472;SDS011;44775;51.564;5.460;2023-12-29T02:49:52;10.82;;;2.38;;
58472;SDS011;44775;51.564;5.460;2023-12-29T02:52:17;8.48;;;2.05;;
58472;SDS011;44775;51.564;5.460;2023-12-29T02:54:42;10.50;;;2.38;;
58472;SDS011;44775;51.564;5.460;2023-12-29T02:57:08;12.63;;;2.65;;
58472;SDS011;44775;51.564;5.460;2023-12-29T02:59:33;11.52;;;2.65;;
58472;SDS011;44775;51.564;5.460;2023-12-29T03:01:59;9.77;;;2.33;;
58472;SDS011;44775;51.564;5.460;2023-12-29T03:04:24;9.43;;;2.33;;
58472;SDS011;44775;51.564;5.460;2023-12-29T03:06:49;8.25;;;2.17;;
58472;SDS011;44775;51.564;5.460;2023-12-29T03:09:14;11.93;;;2.60;;
58472;SDS011;44775;51.564;5.460;2023-12-29T03:11:40;10.85;;;2.33;;
58472;SDS011;44775;51.564;5.460;2023-12-29T03:14:05;9.13;;;2.20;;
58472;SDS011;44775;51.564;5.460;2023-12-29T03:16:30;15.05;;;2.83;;
58472;SDS011;44775;51.564;5.460;2023-12-29T03:18:56;10.88;;;2.55;;
58472;SDS011;44775;51.564;5.460;2023-12-29T03:21:21;10.25;;;2.85;;
58472;SDS011;44775;51.564;5.460;2023-12-29T03:23:46;9.52;;;2.13;;
58472;SDS011;44775;51.564;5.460;2023-12-29T03:26:11;9.45;;;1.88;;
58472;SDS011;44775;51.564;5.460;2023-12-29T03:28:37;13.88;;;2.50;;
58472;SDS011;44775;51.564;5.460;2023-12-29T03:31:02;11.23;;;2.72;;
58472;SDS011;44775;51.564;5.460;2023-12-29T03:33:28;12.23;;;2.33;;
58472;SDS011;44775;51.564;5.460;2023-12-29T03:35:53;10.63;;;2.25;;
58472;SDS011;44775;51.564;5.460;2023-12-29T03:38:19;10.20;;;2.35;;
58472;SDS011;44775;51.564;5.460;2023-12-29T03:40:44;11.27;;;2.42;;
58472;SDS011;44775;51.564;5.460;2023-12-29T03:43:09;14.30;;;3.10;;
58472;SDS011;44775;51.564;5.460;2023-12-29T03:45:35;9.15;;;2.33;;
58472;SDS011;44775;51.564;5.460;2023-12-29T03:48:00;11.90;;;2.30;;
58472;SDS011;44775;51.564;5.460;2023-12-29T03:50:25;13.23;;;2.60;;
58472;SDS011;44775;51.564;5.460;2023-12-29T03:52:50;8.30;;;2.42;;
58472;SDS011;44775;51.564;5.460;2023-12-29T03:55:16;8.98;;;2.28;;
58472;SDS011;44775;51.564;5.460;2023-12-29T03:57:44;9.70;;;2.42;;
58472;SDS011;44775;51.564;5.460;2023-12-29T04:00:13;12.52;;;2.40;;
58472;SDS011;44775;51.564;5.460;2023-12-29T04:02:39;8.82;;;2.25;;
58472;SDS011;44775;51.564;5.460;2023-12-29T04:05:05;11.68;;;2.60;;
58472;SDS011;44775;51.564;5.460;2023-12-29T04:07:31;12.27;;;2.67;;
58472;SDS011;44775;51.564;5.460;2023-12-29T04:09:56;10.43;;;2.78;;
58472;SDS011;44775;51.564;5.460;2023-12-29T04:12:22;10.15;;;2.70;;
58472;SDS011;44775;51.564;5.460;2023-12-29T04:14:47;12.57;;;2.60;;
58472;SDS011;44775;51.564;5.460;2023-12-29T04:17:12;13.10;;;2.78;;
58472;SDS011;44775;51.564;5.460;2023-12-29T04:19:40;10.77;;;2.60;;
58472;SDS011;44775;51.564;5.460;2023-12-29T04:22:06;10.82;;;2.55;;
58472;SDS011;44775;51.564;5.460;2023-12-29T04:24:32;8.63;;;2.20;;
58472;SDS011;44775;51.564;5.460;2023-12-29T04:26:57;10.68;;;2.22;;
58472;SDS011;44775;51.564;5.460;2023-12-29T04:29:22;12.57;;;2.40;;
58472;SDS011;44775;51.564;5.460;2023-12-29T04:31:48;11.57;;;2.53;;
58472;SDS011;44775;51.564;5.460;2023-12-29T04:34:13;13.70;;;2.67;;
58472;SDS011;44775;51.564;5.460;2023-12-29T04:36:38;12.07;;;2.47;;
58472;SDS011;44775;51.564;5.460;2023-12-29T04:39:03;11.43;;;2.65;;
58472;SDS011;44775;51.564;5.460;2023-12-29T04:41:29;13.95;;;2.92;;
58472;SDS011;44775;51.564;5.460;2023-12-29T04:43:54;13.57;;;3.03;;
58472;SDS011;44775;51.564;5.460;2023-12-29T04:46:19;10.30;;;2.50;;
58472;SDS011;44775;51.564;5.460;2023-12-29T04:48:44;13.50;;;3.08;;
58472;SDS011;44775;51.564;5.460;2023-12-29T04:51:10;11.70;;;3.00;;
58472;SDS011;44775;51.564;5.460;2023-12-29T04:53:35;9.32;;;2.45;;
58472;SDS011;44775;51.564;5.460;2023-12-29T04:56:00;9.68;;;2.40;;
58472;SDS011;44775;51.564;5.460;2023-12-29T04:58:26;14.68;;;2.85;;
58472;SDS011;44775;51.564;5.460;2023-12-29T05:00:51;12.20;;;2.60;;
58472;SDS011;44775;51.564;5.460;2023-12-29T05:03:16;11.90;;;2.42;;
58472;SDS011;44775;51.564;5.460;2023-12-29T05:05:41;15.52;;;3.10;;
58472;SDS011;44775;51.564;5.460;2023-12-29T05:08:07;19.70;;;3.40;;
58472;SDS011;44775;51.564;5.460;2023-12-29T05:10:32;16.98;;;2.97;;
58472;SDS011;44775;51.564;5.460;2023-12-29T05:12:59;13.20;;;2.80;;
58472;SDS011;44775;51.564;5.460;2023-12-29T05:15:25;12.50;;;2.78;;
58472;SDS011;44775;51.564;5.460;2023-12-29T05:17:50;15.95;;;3.25;;
58472;SDS011;44775;51.564;5.460;2023-12-29T05:20:15;10.88;;;2.90;;
58472;SDS011;44775;51.564;5.460;2023-12-29T05:22:41;13.52;;;2.97;;
58472;SDS011;44775;51.564;5.460;2023-12-29T05:25:06;16.88;;;3.13;;
58472;SDS011;44775;51.564;5.460;2023-12-29T05:27:32;9.70;;;2.28;;
58472;SDS011;44775;51.564;5.460;2023-12-29T05:29:57;15.50;;;3.22;;
58472;SDS011;44775;51.564;5.460;2023-12-29T05:32:22;15.13;;;2.78;;
58472;SDS011;44775;51.564;5.460;2023-12-29T05:34:48;10.98;;;2.38;;
58472;SDS011;44775;51.564;5.460;2023-12-29T05:37:13;10.85;;;2.50;;
58472;SDS011;44775;51.564;5.460;2023-12-29T05:39:41;15.63;;;3.53;;
58472;SDS011;44775;51.564;5.460;2023-12-29T05:42:07;11.43;;;2.95;;
58472;SDS011;44775;51.564;5.460;2023-12-29T05:44:32;12.57;;;2.88;;
58472;SDS011;44775;51.564;5.460;2023-12-29T05:47:01;18.70;;;3.47;;
58472;SDS011;44775;51.564;5.460;2023-12-29T05:49:26;13.02;;;2.63;;
58472;SDS011;44775;51.564;5.460;2023-12-29T05:51:51;13.98;;;2.60;;
58472;SDS011;44775;51.564;5.460;2023-12-29T05:54:17;11.93;;;2.72;;
58472;SDS011;44775;51.564;5.460;2023-12-29T05:56:43;10.80;;;2.45;;
58472;SDS011;44775;51.564;5.460;2023-12-29T05:59:08;12.10;;;2.80;;
58472;SDS011;44775;51.564;5.460;2023-12-29T06:01:33;13.55;;;3.17;;
58472;SDS011;44775;51.564;5.460;2023-12-29T06:03:59;11.80;;;2.58;;
58472;SDS011;44775;51.564;5.460;2023-12-29T06:06:24;7.60;;;2.30;;
58472;SDS011;44775;51.564;5.460;2023-12-29T06:08:50;16.10;;;2.58;;
58472;SDS011;44775;51.564;5.460;2023-12-29T06:11:15;8.18;;;2.25;;
58472;SDS011;44775;51.564;5.460;2023-12-29T06:13:41;11.13;;;2.65;;
58472;SDS011;44775;51.564;5.460;2023-12-29T06:16:06;15.20;;;3.10;;
58472;SDS011;44775;51.564;5.460;2023-12-29T06:18:35;11.52;;;2.47;;
58472;SDS011;44775;51.564;5.460;2023-12-29T06:21:01;10.48;;;2.80;;
58472;SDS011;44775;51.564;5.460;2023-12-29T06:23:28;11.60;;;2.72;;
58472;SDS011;44775;51.564;5.460;2023-12-29T06:25:53;11.68;;;2.88;;
58472;SDS011;44775;51.564;5.460;2023-12-29T06:28:18;12.75;;;2.78;;
58472;SDS011;44775;51.564;5.460;2023-12-29T06:30:44;10.20;;;2.60;;
58472;SDS011;44775;51.564;5.460;2023-12-29T06:33:09;12.85;;;2.92;;
58472;SDS011;44775;51.564;5.460;2023-12-29T06:35:35;8.48;;;2.40;;
58472;SDS011;44775;51.564;5.460;2023-12-29T06:38:00;12.55;;;2.60;;
58472;SDS011;44775;51.564;5.460;2023-12-29T06:40:25;9.93;;;2.90;;
58472;SDS011;44775;51.564;5.460;2023-12-29T06:42:51;12.85;;;2.97;;
58472;SDS011;44775;51.564;5.460;2023-12-29T06:45:16;12.35;;;2.50;;
58472;SDS011;44775;51.564;5.460;2023-12-29T06:47:41;9.65;;;2.80;;
58472;SDS011;44775;51.564;5.460;2023-12-29T06:50:07;10.35;;;2.65;;
58472;SDS011;44775;51.564;5.460;2023-12-29T06:52:37;10.98;;;2.67;;
58472;SDS011;44775;51.564;5.460;2023-12-29T06:55:03;11.05;;;3.10;;
58472;SDS011;44775;51.564;5.460;2023-12-29T06:57:28;13.82;;;2.60;;
58472;SDS011;44775;51.564;5.460;2023-12-29T06:59:53;8.68;;;2.17;;
58472;SDS011;44775;51.564;5.460;2023-12-29T07:02:19;7.72;;;2.55;;
58472;SDS011;44775;51.564;5.460;2023-12-29T07:04:44;13.10;;;2.67;;
58472;SDS011;44775;51.564;5.460;2023-12-29T07:07:10;13.07;;;2.75;;
58472;SDS011;44775;51.564;5.460;2023-12-29T07:09:37;8.88;;;2.10;;
58472;SDS011;44775;51.564;5.460;2023-12-29T07:12:04;8.75;;;2.15;;
58472;SDS011;44775;51.564;5.460;2023-12-29T07:14:29;9.40;;;2.80;;
58472;SDS011;44775;51.564;5.460;2023-12-29T07:16:55;13.10;;;2.60;;
58472;SDS011;44775;51.564;5.460;2023-12-29T07:19:20;9.63;;;2.47;;
58472;SDS011;44775;51.564;5.460;2023-12-29T07:21:45;10.02;;;2.83;;
58472;SDS011;44775;51.564;5.460;2023-12-29T07:24:11;8.63;;;2.30;;
58472;SDS011;44775;51.564;5.460;2023-12-29T07:26:36;10.65;;;2.42;;
58472;SDS011;44775;51.564;5.460;2023-12-29T07:29:01;8.52;;;2.05;;
58472;SDS011;44775;51.564;5.460;2023-12-29T07:31:27;9.13;;;2.17;;
58472;SDS011;44775;51.564;5.460;2023-12-29T07:33:52;10.90;;;2.47;;
58472;SDS011;44775;51.564;5.460;2023-12-29T07:36:17;9.57;;;2.40;;
58472;SDS011;44775;51.564;5.460;2023-12-29T07:38:43;9.05;;;2.17;;
58472;SDS011;44775;51.564;5.460;2023-12-29T07:41:08;8.43;;;2.50;;
58472;SDS011;44775;51.564;5.460;2023-12-29T07:43:34;8.20;;;2.53;;
58472;SDS011;44775;51.564;5.460;2023-12-29T07:46:01;7.78;;;2.47;;
58472;SDS011;44775;51.564;5.460;2023-12-29T07:48:26;8.63;;;2.65;;
58472;SDS011;44775;51.564;5.460;2023-12-29T07:50:52;7.60;;;2.25;;
58472;SDS011;44775;51.564;5.460;2023-12-29T07:53:17;7.07;;;2.45;;
58472;SDS011;44775;51.564;5.460;2023-12-29T07:55:43;9.48;;;2.70;;
58472;SDS011;44775;51.564;5.460;2023-12-29T07:58:08;4.53;;;1.83;;
58472;SDS011;44775;51.564;5.460;2023-12-29T08:00:35;10.95;;;2.47;;
58472;SDS011;44775;51.564;5.460;2023-12-29T08:03:00;8.27;;;2.00;;
58472;SDS011;44775;51.564;5.460;2023-12-29T08:05:26;6.13;;;2.08;;
58472;SDS011;44775;51.564;5.460;2023-12-29T08:07:51;6.72;;;2.05;;
58472;SDS011;44775;51.564;5.460;2023-12-29T08:10:16;4.40;;;1.90;;
58472;SDS011;44775;51.564;5.460;2023-12-29T08:12:42;6.15;;;1.88;;
58472;SDS011;44775;51.564;5.460;2023-12-29T08:15:07;6.55;;;1.90;;
58472;SDS011;44775;51.564;5.460;2023-12-29T08:17:33;5.93;;;1.52;;
58472;SDS011;44775;51.564;5.460;2023-12-29T08:19:58;4.57;;;1.70;;
58472;SDS011;44775;51.564;5.460;2023-12-29T08:22:23;9.13;;;2.00;;
58472;SDS011;44775;51.564;5.460;2023-12-29T08:24:49;3.60;;;1.42;;
58472;SDS011;44775;51.564;5.460;2023-12-29T08:27:14;6.50;;;2.10;;
58472;SDS011;44775;51.564;5.460;2023-12-29T08:29:40;5.72;;;1.90;;
58472;SDS011;44775;51.564;5.460;2023-12-29T08:32:05;5.10;;;1.67;;
58472;SDS011;44775;51.564;5.460;2023-12-29T08:34:32;4.97;;;1.55;;
58472;SDS011;44775;51.564;5.460;2023-12-29T08:36:59;5.70;;;1.50;;
58472;SDS011;44775;51.564;5.460;2023-12-29T08:39:24;5.18;;;1.75;;
58472;SDS011;44775;51.564;5.460;2023-12-29T08:41:49;3.83;;;1.70;;
58472;SDS011;44775;51.564;5.460;2023-12-29T08:44:15;4.35;;;1.65;;
58472;SDS011;44775;51.564;5.460;2023-12-29T08:46:41;5.35;;;1.60;;
58472;SDS011;44775;51.564;5.460;2023-12-29T08:49:06;2.63;;;1.40;;
58472;SDS011;44775;51.564;5.460;2023-12-29T08:51:32;5.80;;;1.77;;
58472;SDS011;44775;51.564;5.460;2023-12-29T08:53:57;5.00;;;1.73;;
58472;SDS011;44775;51.564;5.460;2023-12-29T08:56:22;3.47;;;1.45;;
58472;SDS011;44775;51.564;5.460;2023-12-29T08:58:48;4.60;;;2.30;;
58472;SDS011;44775;51.564;5.460;2023-12-29T09:01:13;6.70;;;2.30;;
58472;SDS011;44775;51.564;5.460;2023-12-29T09:03:38;4.60;;;2.00;;
58472;SDS011;44775;51.564;5.460;2023-12-29T09:06:04;6.97;;;2.20;;
58472;SDS011;44775;51.564;5.460;2023-12-29T09:08:29;3.92;;;1.80;;
58472;SDS011;44775;51.564;5.460;2023-12-29T09:10:55;5.93;;;1.90;;
58472;SDS011;44775;51.564;5.460;2023-12-29T09:13:20;3.60;;;1.70;;
58472;SDS011;44775;51.564;5.460;2023-12-29T09:15:48;4.22;;;1.70;;
58472;SDS011;44775;51.564;5.460;2023-12-29T09:18:13;4.15;;;1.45;;
58472;SDS011;44775;51.564;5.460;2023-12-29T09:20:39;3.13;;;1.40;;
58472;SDS011;44775;51.564;5.460;2023-12-29T09:23:04;5.00;;;1.70;;
58472;SDS011;44775;51.564;5.460;2023-12-29T09:25:30;3.85;;;1.40;;
58472;SDS011;44775;51.564;5.460;2023-12-29T09:27:55;3.72;;;1.42;;
58472;SDS011;44775;51.564;5.460;2023-12-29T09:30:20;3.33;;;1.70;;
58472;SDS011;44775;51.564;5.460;2023-12-29T09:32:46;3.97;;;1.40;;
58472;SDS011;44775;51.564;5.460;2023-12-29T09:35:11;4.45;;;1.58;;
58472;SDS011;44775;51.564;5.460;2023-12-29T09:37:37;3.03;;;1.40;;
58472;SDS011;44775;51.564;5.460;2023-12-29T09:40:02;4.03;;;1.38;;
58472;SDS011;44775;51.564;5.460;2023-12-29T09:42:28;5.50;;;1.70;;
58472;SDS011;44775;51.564;5.460;2023-12-29T09:44:55;3.08;;;1.30;;
58472;SDS011;44775;51.564;5.460;2023-12-29T09:47:21;3.63;;;1.40;;
58472;SDS011;44775;51.564;5.460;2023-12-29T09:49:48;4.40;;;1.67;;
58472;SDS011;44775;51.564;5.460;2023-12-29T09:52:14;3.83;;;1.77;;
58472;SDS011;44775;51.564;5.460;2023-12-29T09:54:41;3.08;;;1.67;;
58472;SDS011;44775;51.564;5.460;2023-12-29T09:57:07;3.55;;;1.48;;
58472;SDS011;44775;51.564;5.460;2023-12-29T09:59:34;3.22;;;1.60;;
58472;SDS011;44775;51.564;5.460;2023-12-29T10:02:03;2.58;;;1.48;;
58472;SDS011;44775;51.564;5.460;2023-12-29T10:04:30;2.97;;;1.40;;
58472;SDS011;44775;51.564;5.460;2023-12-29T10:06:55;3.55;;;1.60;;
58472;SDS011;44775;51.564;5.460;2023-12-29T10:09:28;3.55;;;1.63;;
58472;SDS011;44775;51.564;5.460;2023-12-29T10:11:55;2.97;;;1.50;;
58472;SDS011;44775;51.564;5.460;2023-12-29T10:14:23;2.47;;;1.50;;
58472;SDS011;44775;51.564;5.460;2023-12-29T10:16:58;2.50;;;1.55;;
58472;SDS011;44775;51.564;5.460;2023-12-29T10:24:56;3.65;;;1.33;;
58472;SDS011;44775;51.564;5.460;2023-12-29T10:27:21;2.17;;;1.60;;
58472;SDS011;44775;51.564;5.460;2023-12-29T10:29:48;2.20;;;1.30;;
58472;SDS011;44775;51.564;5.460;2023-12-29T10:32:13;3.08;;;1.30;;
58472;SDS011;44775;51.564;5.460;2023-12-29T10:34:38;3.33;;;1.42;;
58472;SDS011;44775;51.564;5.460;2023-12-29T10:37:04;4.38;;;1.30;;
58472;SDS011;44775;51.564;5.460;2023-12-29T10:39:34;1.83;;;1.30;;
58472;SDS011;44775;51.564;5.460;2023-12-29T10:42:04;1.90;;;1.13;;
58472;SDS011;44775;51.564;5.460;2023-12-29T10:44:32;1.73;;;1.30;;
58472;SDS011;44775;51.564;5.460;2023-12-29T10:46:58;3.30;;;1.52;;
58472;SDS011;44775;51.564;5.460;2023-12-29T10:49:23;5.50;;;2.35;;
58472;SDS011;44775;51.564;5.460;2023-12-29T10:51:49;3.47;;;1.90;;
58472;SDS011;44775;51.564;5.460;2023-12-29T10:54:20;5.38;;;1.80;;
58472;SDS011;44775;51.564;5.460;2023-12-29T10:57:01;4.60;;;1.70;;
58472;SDS011;44775;51.564;5.460;2023-12-29T10:59:27;3.35;;;1.60;;
58472;SDS011;44775;51.564;5.460;2023-12-29T11:01:53;4.22;;;2.05;;
58472;SDS011;44775;51.564;5.460;2023-12-29T11:04:21;5.47;;;2.40;;
58472;SDS011;44775;51.564;5.460;2023-12-29T11:06:47;7.57;;;2.35;;
58472;SDS011;44775;51.564;5.460;2023-12-29T11:09:13;6.65;;;2.35;;
58472;SDS011;44775;51.564;5.460;2023-12-29T11:11:39;5.30;;;2.15;;
58472;SDS011;44775;51.564;5.460;2023-12-29T11:14:04;5.57;;;1.80;;
58472;SDS011;44775;51.564;5.460;2023-12-29T11:16:30;6.93;;;1.92;;
58472;SDS011;44775;51.564;5.460;2023-12-29T11:18:59;3.70;;;1.80;;
58472;SDS011;44775;51.564;5.460;2023-12-29T11:21:26;7.97;;;2.22;;
58472;SDS011;44775;51.564;5.460;2023-12-29T11:23:54;7.15;;;2.00;;
58472;SDS011;44775;51.564;5.460;2023-12-29T11:26:20;8.20;;;2.47;;
58472;SDS011;44775;51.564;5.460;2023-12-29T11:28:46;7.80;;;2.30;;
58472;SDS011;44775;51.564;5.460;2023-12-29T11:31:14;9.63;;;2.30;;
58472;SDS011;44775;51.564;5.460;2023-12-29T11:33:42;9.57;;;2.20;;
58472;SDS011;44775;51.564;5.460;2023-12-29T11:42:48;5.93;;;1.80;;
58472;SDS011;44775;51.564;5.460;2023-12-29T11:45:23;8.00;;;2.00;;
58472;SDS011;44775;51.564;5.460;2023-12-29T11:47:51;7.03;;;2.30;;
58472;SDS011;44775;51.564;5.460;2023-12-29T11:50:26;7.35;;;1.98;;
58472;SDS011;44775;51.564;5.460;2023-12-29T11:52:53;5.88;;;2.22;;
58472;SDS011;44775;51.564;5.460;2023-12-29T11:55:18;13.07;;;4.70;;
58472;SDS011;44775;51.564;5.460;2023-12-29T11:57:44;7.28;;;2.53;;
58472;SDS011;44775;51.564;5.460;2023-12-29T12:00:10;4.20;;;1.60;;
58472;SDS011;44775;51.564;5.460;2023-12-29T12:02:36;3.15;;;1.40;;
58472;SDS011;44775;51.564;5.460;2023-12-29T12:05:02;2.55;;;1.50;;
58472;SDS011;44775;51.564;5.460;2023-12-29T12:10:28;4.18;;;1.50;;
58472;SDS011;44775;51.564;5.460;2023-12-29T12:12:47;3.10;;;1.60;;
58472;SDS011;44775;51.564;5.460;2023-12-29T12:18:00;2.95;;;1.70;;
58472;SDS011;44775;51.564;5.460;2023-12-29T12:20:29;3.78;;;1.60;;
58472;SDS011;44775;51.564;5.460;2023-12-29T12:22:58;3.83;;;1.40;;
58472;SDS011;44775;51.564;5.460;2023-12-29T12:25:30;2.75;;;1.50;;
58472;SDS011;44775;51.564;5.460;2023-12-29T12:27:59;3.90;;;1.67;;
58472;SDS011;44775;51.564;5.460;2023-12-29T12:30:27;3.30;;;1.50;;
58472;SDS011;44775;51.564;5.460;2023-12-29T12:32:57;2.50;;;1.75;;
58472;SDS011;44775;51.564;5.460;2023-12-29T12:35:23;2.22;;;1.50;;
58472;SDS011;44775;51.564;5.460;2023-12-29T12:37:51;3.53;;;2.08;;
58472;SDS011;44775;51.564;5.460;2023-12-29T12:40:32;4.35;;;1.90;;
58472;SDS011;44775;51.564;5.460;2023-12-29T12:42:57;2.78;;;1.88;;
58472;SDS011;44775;51.564;5.460;2023-12-29T12:45:22;6.80;;;2.50;;
58472;SDS011;44775;51.564;5.460;2023-12-29T12:47:54;2.85;;;1.90;;
58472;SDS011;44775;51.564;5.460;2023-12-29T12:50:25;3.92;;;2.00;;
58472;SDS011;44775;51.564;5.460;2023-12-29T12:52:50;2.60;;;2.10;;
58472;SDS011;44775;51.564;5.460;2023-12-29T12:55:17;3.20;;;2.45;;
58472;SDS011;44775;51.564;5.460;2023-12-29T12:57:43;5.93;;;3.10;;
58472;SDS011;44775;51.564;5.460;2023-12-29T13:00:09;4.10;;;3.10;;
58472;SDS011;44775;51.564;5.460;2023-12-29T13:02:34;4.32;;;3.10;;
58472;SDS011;44775;51.564;5.460;2023-12-29T13:05:01;4.55;;;3.08;;
58472;SDS011;44775;51.564;5.460;2023-12-29T13:07:30;4.47;;;3.50;;
58472;SDS011;44775;51.564;5.460;2023-12-29T13:09:56;5.20;;;3.50;;
58472;SDS011;44775;51.564;5.460;2023-12-29T13:12:21;6.35;;;3.92;;
58472;SDS011;44775;51.564;5.460;2023-12-29T13:14:47;5.35;;;3.92;;
58472;SDS011;44775;51.564;5.460;2023-12-29T13:17:13;6.18;;;3.65;;
58472;SDS011;44775;51.564;5.460;2023-12-29T13:19:40;4.90;;;3.72;;
58472;SDS011;44775;51.564;5.460;2023-12-29T13:22:12;5.22;;;3.90;;
58472;SDS011;44775;51.564;5.460;2023-12-29T13:24:43;4.57;;;3.65;;
58472;SDS011;44775;51.564;5.460;2023-12-29T13:27:10;5.00;;;3.90;;
58472;SDS011;44775;51.564;5.460;2023-12-29T13:29:36;6.65;;;3.92;;
58472;SDS011;44775;51.564;5.460;2023-12-29T13:32:24;7.38;;;4.15;;
58472;SDS011;44775;51.564;5.460;2023-12-29T13:43:06;10.23;;;4.90;;
58472;SDS011;44775;51.564;5.460;2023-12-29T13:45:33;9.70;;;5.32;;
58472;SDS011;44775;51.564;5.460;2023-12-29T13:48:01;7.55;;;4.65;;
58472;SDS011;44775;51.564;5.460;2023-12-29T13:50:28;5.40;;;4.40;;
58472;SDS011;44775;51.564;5.460;2023-12-29T13:52:53;8.18;;;3.88;;
58472;SDS011;44775;51.564;5.460;2023-12-29T13:55:22;7.50;;;3.75;;
58472;SDS011;44775;51.564;5.460;2023-12-29T13:57:49;9.00;;;3.83;;
58472;SDS011;44775;51.564;5.460;2023-12-29T14:00:21;8.35;;;3.80;;
58472;SDS011;44775;51.564;5.460;2023-12-29T14:05:31;9.95;;;3.55;;
58472;SDS011;44775;51.564;5.460;2023-12-29T14:08:00;5.60;;;2.75;;
58472;SDS011;44775;51.564;5.460;2023-12-29T14:10:30;6.15;;;2.80;;
58472;SDS011;44775;51.564;5.460;2023-12-29T14:13:03;7.43;;;2.75;;
58472;SDS011;44775;51.564;5.460;2023-12-29T14:15:34;6.38;;;2.67;;
58472;SDS011;44775;51.564;5.460;2023-12-29T14:18:05;5.63;;;2.20;;
58472;SDS011;44775;51.564;5.460;2023-12-29T14:20:53;5.10;;;2.28;;
58472;SDS011;44775;51.564;5.460;2023-12-29T14:23:18;4.13;;;2.50;;
58472;SDS011;44775;51.564;5.460;2023-12-29T14:25:44;6.90;;;2.30;;
58472;SDS011;44775;51.564;5.460;2023-12-29T14:28:16;3.55;;;2.03;;
58472;SDS011;44775;51.564;5.460;2023-12-29T14:30:42;4.93;;;2.20;;
58472;SDS011;44775;51.564;5.460;2023-12-29T14:33:08;4.72;;;2.00;;
58472;SDS011;44775;51.564;5.460;2023-12-29T14:35:34;3.85;;;2.00;;
58472;SDS011;44775;51.564;5.460;2023-12-29T14:37:59;3.60;;;1.90;;
58472;SDS011;44775;51.564;5.460;2023-12-29T14:40:25;3.83;;;2.22;;
58472;SDS011;44775;51.564;5.460;2023-12-29T14:42:50;6.40;;;2.60;;
58472;SDS011;44775;51.564;5.460;2023-12-29T14:45:15;6.25;;;3.00;;
58472;SDS011;44775;51.564;5.460;2023-12-29T14:47:41;4.10;;;2.47;;
58472;SDS011;44775;51.564;5.460;2023-12-29T14:50:06;3.88;;;2.20;;
58472;SDS011;44775;51.564;5.460;2023-12-29T14:52:32;5.80;;;3.08;;
58472;SDS011;44775;51.564;5.460;2023-12-29T14:54:57;4.43;;;2.50;;
58472;SDS011;44775;51.564;5.460;2023-12-29T14:57:22;5.50;;;2.38;;
58472;SDS011;44775;51.564;5.460;2023-12-29T14:59:48;5.63;;;2.60;;
58472;SDS011;44775;51.564;5.460;2023-12-29T15:02:14;3.90;;;2.03;;
58472;SDS011;44775;51.564;5.460;2023-12-29T15:04:39;3.63;;;1.92;;
58472;SDS011;44775;51.564;5.460;2023-12-29T15:07:04;4.43;;;1.80;;
58472;SDS011;44775;51.564;5.460;2023-12-29T15:09:30;3.83;;;1.67;;
58472;SDS011;44775;51.564;5.460;2023-12-29T15:11:55;4.22;;;1.50;;